Предлагаем Вашему вниманию Прогноз погоды Ханты-Мансийск по новой модели GA.Corvus
(повышенная детализация прогноза видимости, облачности, явлений погоды, включая турбулентность и обледенение) и Мобильную версию авиапрогноза Ханты-Мансийск по модели GA.Corvus

AUTOTAF.ME Ханты-Мансийск - прогноз погоды

Сегодня рассвет 03:14 UTC, восход солнца 04:12 UTC, местный полдень 07:13 UTC, заход солнца 10:14 UTC, наступление темноты 11:12 UTC.

Краткий прогноз Ханты-Мансийск на 9 часов

AUTOTAF.ME USHH 022000Z 0221/0306 VRB02MPS 0100 HZ OVC001

Детальный прогноз Ханты-Мансийск на 24 часа

AUTOTAF.ME USHH 022000Z 0221/0321 VRB02MPS 0100 HZ OVC001 TXM273/0221Z TNM273/0221Z

Подробный табличный прогноз Ханты-Мансийск

Для получения пояснительной информации подведите курсор мыши к названию столбца
Для просмотра прогноза ветра и температуры воздуха по высотам кликните по многоточию в нужной ячейке таблицы

Время (UTC) miniAUTOTAF на 3 часа Ветер
(°,м/с) 
SQ
м/с
Вид. Вид. местами* Явления погоды Облачность нижнего яруса и верт. развития FZLVL
M AGL
ICE TURB Т
(°С)
Тd
(°С)
f(%) QNH
(гПа)
FL20-FL50
(600-
1500 м)
FL100-240
(3050-
7300 м)
FL310-FL390
(9450-
11900 м)
R
(мм)
Rс**
(мм)
K
F
LI
PTS Син. сит.


Широта 61.0285°, долгота 69.08647°, высота 42 м абс. Средняя высота рельефа местности 0 м абс.
Прогнозы обновляются четыре раза в сутки: в 02, 08, 14, 20 ч всемирного времени.

Примечания (кликните для просмотра)

Смотрите также:
Выбрать прогноз по другой модели Ханты-Мансийск Онлайн-сводка гроз по Ханты-Мансийск (для РФ и ближнего зарубежья)

Метеограмма (по модели ECMWF) и карта прогноза высоты нижней границы облаков. На метеограмме и карте указано местное время, скорость ветра в узлах:
Открыть метеограмму в другом окне



Прогноз предназначен для личного научно-познавательного использования частными лицами и не предназначен для принятия важных решений и выполнения реальных полётов воздушных судов
Представленная на данном сайте метеорологическая информация носит обзорно-консультативный характер, основана на данных автоматизированных компьютерных расчётов мировых метеорологических центров и не проходит контроль персоналом, в связи с этим администрация сайта не несёт ответственности за указанную информацию.
Официальным источником метеоинформации для полётов воздушных судов являются сводки (METAR, SPECI, TAF, SIGMET, GAMET, AIRMET), выпускаемые полномочным метеорологическим органом государства (в России - Росгидрометом).

При копировании или ином использовании любых материалов данного сайта ссылка на © meteocenter.asia обязательна.

/0